sensor_id;sensor_type;location;lat;lon;timestamp;temperature;humidity
16879;DHT22;8556;52.218;9.884;2023-12-04T00:00:05;-0.60;99.90
16879;DHT22;8556;52.218;9.884;2023-12-04T00:02:32;-0.60;99.90
16879;DHT22;8556;52.218;9.884;2023-12-04T00:05:02;-0.60;99.90
16879;DHT22;8556;52.218;9.884;2023-12-04T00:07:29;-0.60;99.90
16879;DHT22;8556;52.218;9.884;2023-12-04T00:09:56;-0.60;99.90
16879;DHT22;8556;52.218;9.884;2023-12-04T00:12:22;-0.60;99.90
16879;DHT22;8556;52.218;9.884;2023-12-04T00:14:49;-0.60;99.90
16879;DHT22;8556;52.218;9.884;2023-12-04T00:17:17;-0.60;99.90
16879;DHT22;8556;52.218;9.884;2023-12-04T00:19:44;-0.60;99.90
16879;DHT22;8556;52.218;9.884;2023-12-04T00:22:12;-0.70;99.90
16879;DHT22;8556;52.218;9.884;2023-12-04T00:24:39;-0.60;1.00
16879;DHT22;8556;52.218;9.884;2023-12-04T00:27:05;-0.60;1.00
16879;DHT22;8556;52.218;9.884;2023-12-04T00:29:32;-0.70;1.00
16879;DHT22;8556;52.218;9.884;2023-12-04T00:31:59;-0.70;1.00
16879;DHT22;8556;52.218;9.884;2023-12-04T00:34:26;-0.70;1.00
16879;DHT22;8556;52.218;9.884;2023-12-04T00:36:53;-0.60;1.00
16879;DHT22;8556;52.218;9.884;2023-12-04T00:39:21;-0.60;1.00
16879;DHT22;8556;52.218;9.884;2023-12-04T00:41:50;-0.50;1.00
16879;DHT22;8556;52.218;9.884;2023-12-04T00:44:17;-0.50;99.90
16879;DHT22;8556;52.218;9.884;2023-12-04T00:46:44;-0.40;99.90
16879;DHT22;8556;52.218;9.884;2023-12-04T00:49:10;-0.40;99.90
16879;DHT22;8556;52.218;9.884;2023-12-04T00:51:38;-0.40;99.90
16879;DHT22;8556;52.218;9.884;2023-12-04T00:54:05;-0.50;99.90
16879;DHT22;8556;52.218;9.884;2023-12-04T00:56:33;-0.50;99.90
16879;DHT22;8556;52.218;9.884;2023-12-04T00:59:00;-0.50;99.90
16879;DHT22;8556;52.218;9.884;2023-12-04T01:01:26;-0.40;99.90
16879;DHT22;8556;52.218;9.884;2023-12-04T01:03:54;-0.50;99.90
16879;DHT22;8556;52.218;9.884;2023-12-04T01:06:21;-0.50;99.90
16879;DHT22;8556;52.218;9.884;2023-12-04T01:08:48;-0.50;99.90
16879;DHT22;8556;52.218;9.884;2023-12-04T01:11:16;-0.50;99.90
16879;DHT22;8556;52.218;9.884;2023-12-04T01:13:44;-0.40;99.90
16879;DHT22;8556;52.218;9.884;2023-12-04T01:16:11;-0.40;99.90
16879;DHT22;8556;52.218;9.884;2023-12-04T01:18:38;-0.40;99.90
16879;DHT22;8556;52.218;9.884;2023-12-04T01:21:05;-0.40;99.90
16879;DHT22;8556;52.218;9.884;2023-12-04T01:23:34;-0.30;99.90
16879;DHT22;8556;52.218;9.884;2023-12-04T01:26:01;-0.40;99.90
16879;DHT22;8556;52.218;9.884;2023-12-04T01:28:28;-0.40;99.90
16879;DHT22;8556;52.218;9.884;2023-12-04T01:30:56;-0.40;99.90
16879;DHT22;8556;52.218;9.884;2023-12-04T01:33:23;-0.40;99.90
16879;DHT22;8556;52.218;9.884;2023-12-04T01:35:50;-0.40;99.90
16879;DHT22;8556;52.218;9.884;2023-12-04T01:38:18;-0.40;1.00
16879;DHT22;8556;52.218;9.884;2023-12-04T01:40:44;-0.40;1.00
16879;DHT22;8556;52.218;9.884;2023-12-04T01:43:11;-0.40;99.90
16879;DHT22;8556;52.218;9.884;2023-12-04T01:45:38;-0.40;1.00
16879;DHT22;8556;52.218;9.884;2023-12-04T01:48:06;-0.40;1.00
16879;DHT22;8556;52.218;9.884;2023-12-04T01:50:34;-0.50;1.00
16879;DHT22;8556;52.218;9.884;2023-12-04T01:53:01;-0.50;1.00
16879;DHT22;8556;52.218;9.884;2023-12-04T01:55:29;-0.50;1.00
16879;DHT22;8556;52.218;9.884;2023-12-04T01:57:56;-0.50;1.00
16879;DHT22;8556;52.218;9.884;2023-12-04T02:00:25;-0.50;1.00
16879;DHT22;8556;52.218;9.884;2023-12-04T02:02:52;-0.50;20.20
16879;DHT22;8556;52.218;9.884;2023-12-04T02:05:21;-0.50;99.90
16879;DHT22;8556;52.218;9.884;2023-12-04T02:07:48;-0.50;99.90
16879;DHT22;8556;52.218;9.884;2023-12-04T02:10:15;-0.60;99.90
16879;DHT22;8556;52.218;9.884;2023-12-04T02:12:42;-0.60;99.90
16879;DHT22;8556;52.218;9.884;2023-12-04T02:15:09;-0.60;99.90
16879;DHT22;8556;52.218;9.884;2023-12-04T02:17:37;-0.70;99.90
16879;DHT22;8556;52.218;9.884;2023-12-04T02:20:05;-0.60;99.90
16879;DHT22;8556;52.218;9.884;2023-12-04T02:22:34;-0.60;99.90
16879;DHT22;8556;52.218;9.884;2023-12-04T02:25:03;-0.50;99.90
16879;DHT22;8556;52.218;9.884;2023-12-04T02:27:37;-0.50;99.90
16879;DHT22;8556;52.218;9.884;2023-12-04T02:30:06;-0.60;99.90
16879;DHT22;8556;52.218;9.884;2023-12-04T02:32:37;-0.50;99.90
16879;DHT22;8556;52.218;9.884;2023-12-04T02:35:06;-0.50;99.90
16879;DHT22;8556;52.218;9.884;2023-12-04T02:37:35;-0.40;99.80
16879;DHT22;8556;52.218;9.884;2023-12-04T02:40:04;-0.40;99.90
16879;DHT22;8556;52.218;9.884;2023-12-04T02:42:32;-0.40;99.90
16879;DHT22;8556;52.218;9.884;2023-12-04T02:44:58;-0.40;73.90
16879;DHT22;8556;52.218;9.884;2023-12-04T02:47:25;-0.30;1.00
16879;DHT22;8556;52.218;9.884;2023-12-04T02:49:52;-0.20;1.00
16879;DHT22;8556;52.218;9.884;2023-12-04T02:52:19;-0.20;1.00
16879;DHT22;8556;52.218;9.884;2023-12-04T02:54:46;-0.20;1.00
16879;DHT22;8556;52.218;9.884;2023-12-04T02:57:14;-0.20;1.00
16879;DHT22;8556;52.218;9.884;2023-12-04T02:59:41;-0.20;1.00
16879;DHT22;8556;52.218;9.884;2023-12-04T03:02:07;-0.20;1.00
16879;DHT22;8556;52.218;9.884;2023-12-04T03:04:34;-0.10;1.00
16879;DHT22;8556;52.218;9.884;2023-12-04T03:07:02;-0.10;1.00
16879;DHT22;8556;52.218;9.884;2023-12-04T03:09:28;-0.10;1.00
16879;DHT22;8556;52.218;9.884;2023-12-04T03:11:55;-0.10;1.00
16879;DHT22;8556;52.218;9.884;2023-12-04T03:14:23;-0.10;99.90
16879;DHT22;8556;52.218;9.884;2023-12-04T03:16:50;-0.10;99.90
16879;DHT22;8556;52.218;9.884;2023-12-04T03:19:17;0.00;99.90
16879;DHT22;8556;52.218;9.884;2023-12-04T03:21:44;0.00;99.90
16879;DHT22;8556;52.218;9.884;2023-12-04T03:24:11;-0.10;99.90
16879;DHT22;8556;52.218;9.884;2023-12-04T03:26:37;0.00;99.90
16879;DHT22;8556;52.218;9.884;2023-12-04T03:29:04;0.00;99.90
16879;DHT22;8556;52.218;9.884;2023-12-04T03:31:32;0.00;99.90
16879;DHT22;8556;52.218;9.884;2023-12-04T03:33:59;0.30;99.90
16879;DHT22;8556;52.218;9.884;2023-12-04T03:36:26;0.00;99.90
16879;DHT22;8556;52.218;9.884;2023-12-04T03:38:53;0.00;99.90
16879;DHT22;8556;52.218;9.884;2023-12-04T03:41:20;0.00;94.30
16879;DHT22;8556;52.218;9.884;2023-12-04T03:43:47;0.10;99.90
16879;DHT22;8556;52.218;9.884;2023-12-04T03:46:14;0.00;99.90
16879;DHT22;8556;52.218;9.884;2023-12-04T03:48:42;0.00;99.90
16879;DHT22;8556;52.218;9.884;2023-12-04T03:51:09;0.00;95.60
16879;DHT22;8556;52.218;9.884;2023-12-04T03:53:36;0.00;99.90
16879;DHT22;8556;52.218;9.884;2023-12-04T03:56:04;0.00;99.90
16879;DHT22;8556;52.218;9.884;2023-12-04T03:58:32;0.00;1.00
16879;DHT22;8556;52.218;9.884;2023-12-04T04:00:58;0.10;1.00
16879;DHT22;8556;52.218;9.884;2023-12-04T04:03:26;0.00;19.00
16879;DHT22;8556;52.218;9.884;2023-12-04T04:05:54;0.00;1.00
16879;DHT22;8556;52.218;9.884;2023-12-04T04:08:21;0.00;1.00
16879;DHT22;8556;52.218;9.884;2023-12-04T04:10:47;0.00;1.00
16879;DHT22;8556;52.218;9.884;2023-12-04T04:13:14;0.00;1.00
16879;DHT22;8556;52.218;9.884;2023-12-04T04:15:41;0.00;1.00
16879;DHT22;8556;52.218;9.884;2023-12-04T04:18:08;0.00;1.00
16879;DHT22;8556;52.218;9.884;2023-12-04T04:20:35;0.00;1.00
16879;DHT22;8556;52.218;9.884;2023-12-04T04:23:03;0.10;1.00
16879;DHT22;8556;52.218;9.884;2023-12-04T04:25:30;0.10;1.00
16879;DHT22;8556;52.218;9.884;2023-12-04T04:27:56;0.10;1.00
16879;DHT22;8556;52.218;9.884;2023-12-04T04:30:23;0.20;1.00
16879;DHT22;8556;52.218;9.884;2023-12-04T04:32:50;0.20;1.00
16879;DHT22;8556;52.218;9.884;2023-12-04T04:35:16;0.10;1.00
16879;DHT22;8556;52.218;9.884;2023-12-04T04:37:43;0.20;1.00
16879;DHT22;8556;52.218;9.884;2023-12-04T04:40:12;0.20;1.00
16879;DHT22;8556;52.218;9.884;2023-12-04T04:42:39;0.10;1.00
16879;DHT22;8556;52.218;9.884;2023-12-04T04:45:06;0.30;1.00
16879;DHT22;8556;52.218;9.884;2023-12-04T04:47:33;0.20;1.00
16879;DHT22;8556;52.218;9.884;2023-12-04T04:50:00;0.20;1.00
16879;DHT22;8556;52.218;9.884;2023-12-04T04:52:27;0.40;1.00
16879;DHT22;8556;52.218;9.884;2023-12-04T04:54:53;0.30;1.00
16879;DHT22;8556;52.218;9.884;2023-12-04T04:57:21;0.30;1.00
16879;DHT22;8556;52.218;9.884;2023-12-04T04:59:48;0.30;1.00
16879;DHT22;8556;52.218;9.884;2023-12-04T05:02:15;0.30;1.00
16879;DHT22;8556;52.218;9.884;2023-12-04T05:04:42;0.30;1.00
16879;DHT22;8556;52.218;9.884;2023-12-04T05:07:09;0.30;1.00
16879;DHT22;8556;52.218;9.884;2023-12-04T05:09:35;0.30;1.00
16879;DHT22;8556;52.218;9.884;2023-12-04T05:12:03;0.20;1.00
16879;DHT22;8556;52.218;9.884;2023-12-04T05:14:31;0.30;1.00
16879;DHT22;8556;52.218;9.884;2023-12-04T05:16:58;0.30;1.00
16879;DHT22;8556;52.218;9.884;2023-12-04T05:19:24;0.30;1.00
16879;DHT22;8556;52.218;9.884;2023-12-04T05:21:51;0.30;1.00
16879;DHT22;8556;52.218;9.884;2023-12-04T05:24:18;0.30;1.00
16879;DHT22;8556;52.218;9.884;2023-12-04T05:26:45;0.30;1.00
16879;DHT22;8556;52.218;9.884;2023-12-04T05:29:12;0.30;1.00
16879;DHT22;8556;52.218;9.884;2023-12-04T05:31:40;0.30;1.00
16879;DHT22;8556;52.218;9.884;2023-12-04T05:34:06;0.30;1.00
16879;DHT22;8556;52.218;9.884;2023-12-04T05:36:33;0.30;1.00
16879;DHT22;8556;52.218;9.884;2023-12-04T05:39:00;0.30;1.00
16879;DHT22;8556;52.218;9.884;2023-12-04T05:41:27;0.30;1.00
16879;DHT22;8556;52.218;9.884;2023-12-04T05:43:53;0.20;1.00
16879;DHT22;8556;52.218;9.884;2023-12-04T05:46:20;0.20;1.00
16879;DHT22;8556;52.218;9.884;2023-12-04T05:48:48;0.20;1.00
16879;DHT22;8556;52.218;9.884;2023-12-04T05:51:15;0.20;1.00
16879;DHT22;8556;52.218;9.884;2023-12-04T05:53:42;0.30;1.00
16879;DHT22;8556;52.218;9.884;2023-12-04T05:56:09;0.30;1.00
16879;DHT22;8556;52.218;9.884;2023-12-04T05:58:36;0.30;1.00
16879;DHT22;8556;52.218;9.884;2023-12-04T06:01:03;0.30;1.00
16879;DHT22;8556;52.218;9.884;2023-12-04T06:03:31;0.30;1.00
16879;DHT22;8556;52.218;9.884;2023-12-04T06:05:59;0.30;1.00
16879;DHT22;8556;52.218;9.884;2023-12-04T06:08:26;0.30;1.00
16879;DHT22;8556;52.218;9.884;2023-12-04T06:10:53;0.30;1.00
16879;DHT22;8556;52.218;9.884;2023-12-04T06:13:20;0.30;1.00
16879;DHT22;8556;52.218;9.884;2023-12-04T06:15:46;0.30;1.00
16879;DHT22;8556;52.218;9.884;2023-12-04T06:18:13;0.30;1.00
16879;DHT22;8556;52.218;9.884;2023-12-04T06:20:40;0.30;1.00
16879;DHT22;8556;52.218;9.884;2023-12-04T06:23:09;0.20;1.00
16879;DHT22;8556;52.218;9.884;2023-12-04T06:25:36;0.20;1.00
16879;DHT22;8556;52.218;9.884;2023-12-04T06:28:04;0.20;1.00
16879;DHT22;8556;52.218;9.884;2023-12-04T06:30:31;0.20;1.00
16879;DHT22;8556;52.218;9.884;2023-12-04T06:32:59;0.20;1.00
16879;DHT22;8556;52.218;9.884;2023-12-04T06:35:26;0.10;1.00
16879;DHT22;8556;52.218;9.884;2023-12-04T06:37:54;0.10;1.00
16879;DHT22;8556;52.218;9.884;2023-12-04T06:40:23;0.10;1.00
16879;DHT22;8556;52.218;9.884;2023-12-04T06:42:50;0.20;1.00
16879;DHT22;8556;52.218;9.884;2023-12-04T06:45:18;0.20;1.00
16879;DHT22;8556;52.218;9.884;2023-12-04T06:47:46;0.20;1.00
16879;DHT22;8556;52.218;9.884;2023-12-04T06:50:15;0.20;1.00
16879;DHT22;8556;52.218;9.884;2023-12-04T06:52:42;0.30;1.00
16879;DHT22;8556;52.218;9.884;2023-12-04T06:55:09;0.30;1.00
16879;DHT22;8556;52.218;9.884;2023-12-04T06:57:37;0.30;1.00
16879;DHT22;8556;52.218;9.884;2023-12-04T07:00:04;0.30;1.00
16879;DHT22;8556;52.218;9.884;2023-12-04T07:02:32;0.40;1.00
16879;DHT22;8556;52.218;9.884;2023-12-04T07:04:59;0.50;1.00
16879;DHT22;8556;52.218;9.884;2023-12-04T07:07:28;0.50;1.00
16879;DHT22;8556;52.218;9.884;2023-12-04T07:09:55;0.50;1.00
16879;DHT22;8556;52.218;9.884;2023-12-04T07:12:22;0.50;1.00
16879;DHT22;8556;52.218;9.884;2023-12-04T07:14:50;0.50;1.00
16879;DHT22;8556;52.218;9.884;2023-12-04T07:17:17;0.60;1.00
16879;DHT22;8556;52.218;9.884;2023-12-04T07:19:43;0.50;1.00
16879;DHT22;8556;52.218;9.884;2023-12-04T07:22:10;0.50;99.90
16879;DHT22;8556;52.218;9.884;2023-12-04T07:24:37;0.50;99.90
16879;DHT22;8556;52.218;9.884;2023-12-04T07:27:04;0.60;99.90
16879;DHT22;8556;52.218;9.884;2023-12-04T07:29:32;0.50;99.90
16879;DHT22;8556;52.218;9.884;2023-12-04T07:32:00;0.50;99.90
16879;DHT22;8556;52.218;9.884;2023-12-04T07:34:26;0.60;99.90
16879;DHT22;8556;52.218;9.884;2023-12-04T07:36:53;0.60;99.90
16879;DHT22;8556;52.218;9.884;2023-12-04T07:39:20;0.60;1.00
16879;DHT22;8556;52.218;9.884;2023-12-04T07:41:47;0.60;99.90
16879;DHT22;8556;52.218;9.884;2023-12-04T07:44:14;0.60;99.90
16879;DHT22;8556;52.218;9.884;2023-12-04T07:46:41;0.60;99.90
16879;DHT22;8556;52.218;9.884;2023-12-04T07:49:09;0.60;99.90
16879;DHT22;8556;52.218;9.884;2023-12-04T07:51:36;0.70;99.90
16879;DHT22;8556;52.218;9.884;2023-12-04T07:54:03;0.70;99.90
16879;DHT22;8556;52.218;9.884;2023-12-04T07:56:30;0.80;99.90
16879;DHT22;8556;52.218;9.884;2023-12-04T07:58:57;0.70;99.90
16879;DHT22;8556;52.218;9.884;2023-12-04T08:01:24;0.70;99.90
16879;DHT22;8556;52.218;9.884;2023-12-04T08:03:51;0.80;99.90
16879;DHT22;8556;52.218;9.884;2023-12-04T08:06:19;0.70;99.90
16879;DHT22;8556;52.218;9.884;2023-12-04T08:08:45;0.70;99.90
16879;DHT22;8556;52.218;9.884;2023-12-04T08:11:12;0.80;99.90
16879;DHT22;8556;52.218;9.884;2023-12-04T08:13:39;0.80;99.90
16879;DHT22;8556;52.218;9.884;2023-12-04T08:16:13;0.60;99.90
16879;DHT22;8556;52.218;9.884;2023-12-04T08:18:40;0.60;99.90
16879;DHT22;8556;52.218;9.884;2023-12-04T08:21:07;0.60;99.90
16879;DHT22;8556;52.218;9.884;2023-12-04T08:23:36;0.60;1.00
16879;DHT22;8556;52.218;9.884;2023-12-04T08:26:03;0.70;1.00
16879;DHT22;8556;52.218;9.884;2023-12-04T08:28:30;0.70;1.00
16879;DHT22;8556;52.218;9.884;2023-12-04T08:30:57;0.70;1.00
16879;DHT22;8556;52.218;9.884;2023-12-04T08:33:24;0.60;1.00
16879;DHT22;8556;52.218;9.884;2023-12-04T08:35:50;0.50;1.00
16879;DHT22;8556;52.218;9.884;2023-12-04T08:38:17;0.50;99.90
16879;DHT22;8556;52.218;9.884;2023-12-04T08:40:45;0.70;1.00
16879;DHT22;8556;52.218;9.884;2023-12-04T08:43:13;0.60;99.90
16879;DHT22;8556;52.218;9.884;2023-12-04T08:45:40;0.50;99.90
16879;DHT22;8556;52.218;9.884;2023-12-04T08:48:07;0.60;99.90
16879;DHT22;8556;52.218;9.884;2023-12-04T08:50:34;0.60;99.90
16879;DHT22;8556;52.218;9.884;2023-12-04T08:53:02;0.60;99.90
16879;DHT22;8556;52.218;9.884;2023-12-04T08:55:29;0.60;99.90
16879;DHT22;8556;52.218;9.884;2023-12-04T08:57:57;0.60;99.90
16879;DHT22;8556;52.218;9.884;2023-12-04T09:00:24;0.70;99.90
16879;DHT22;8556;52.218;9.884;2023-12-04T09:02:51;0.60;99.90
16879;DHT22;8556;52.218;9.884;2023-12-04T09:05:18;0.70;99.90
16879;DHT22;8556;52.218;9.884;2023-12-04T09:07:45;0.70;99.90
16879;DHT22;8556;52.218;9.884;2023-12-04T09:10:12;0.80;99.90
16879;DHT22;8556;52.218;9.884;2023-12-04T09:12:40;0.80;99.90
16879;DHT22;8556;52.218;9.884;2023-12-04T09:15:08;0.70;99.90
16879;DHT22;8556;52.218;9.884;2023-12-04T09:17:35;0.80;99.90
16879;DHT22;8556;52.218;9.884;2023-12-04T09:20:02;0.70;99.90
16879;DHT22;8556;52.218;9.884;2023-12-04T09:22:31;0.90;99.90
16879;DHT22;8556;52.218;9.884;2023-12-04T09:24:58;0.90;99.90
16879;DHT22;8556;52.218;9.884;2023-12-04T09:27:24;0.90;99.90
16879;DHT22;8556;52.218;9.884;2023-12-04T09:29:51;0.90;99.90
16879;DHT22;8556;52.218;9.884;2023-12-04T09:32:19;1.00;99.90
16879;DHT22;8556;52.218;9.884;2023-12-04T09:34:46;1.00;99.90
16879;DHT22;8556;52.218;9.884;2023-12-04T09:37:13;1.10;99.90
16879;DHT22;8556;52.218;9.884;2023-12-04T09:39:40;1.10;99.90
16879;DHT22;8556;52.218;9.884;2023-12-04T09:42:07;1.20;99.90
16879;DHT22;8556;52.218;9.884;2023-12-04T09:44:35;1.10;99.90
16879;DHT22;8556;52.218;9.884;2023-12-04T09:47:03;1.10;99.90
16879;DHT22;8556;52.218;9.884;2023-12-04T09:49:32;1.20;99.90
16879;DHT22;8556;52.218;9.884;2023-12-04T09:52:01;1.20;99.90
16879;DHT22;8556;52.218;9.884;2023-12-04T09:54:28;1.30;99.90
16879;DHT22;8556;52.218;9.884;2023-12-04T09:56:56;1.30;99.90
16879;DHT22;8556;52.218;9.884;2023-12-04T09:59:24;1.30;99.90
16879;DHT22;8556;52.218;9.884;2023-12-04T10:01:51;1.30;99.90
16879;DHT22;8556;52.218;9.884;2023-12-04T10:04:19;1.20;99.90
16879;DHT22;8556;52.218;9.884;2023-12-04T10:06:49;1.30;99.90
16879;DHT22;8556;52.218;9.884;2023-12-04T10:09:17;1.40;99.90
16879;DHT22;8556;52.218;9.884;2023-12-04T10:11:44;1.50;99.90
16879;DHT22;8556;52.218;9.884;2023-12-04T10:14:15;1.60;99.90
16879;DHT22;8556;52.218;9.884;2023-12-04T10:16:43;1.40;99.50
16879;DHT22;8556;52.218;9.884;2023-12-04T10:19:20;1.60;99.90
16879;DHT22;8556;52.218;9.884;2023-12-04T10:21:49;1.40;99.90
16879;DHT22;8556;52.218;9.884;2023-12-04T10:24:31;1.50;99.90
16879;DHT22;8556;52.218;9.884;2023-12-04T10:26:58;1.60;99.90
16879;DHT22;8556;52.218;9.884;2023-12-04T10:29:28;1.60;99.90
16879;DHT22;8556;52.218;9.884;2023-12-04T10:31:55;1.50;99.90
16879;DHT22;8556;52.218;9.884;2023-12-04T10:34:25;1.50;99.90
16879;DHT22;8556;52.218;9.884;2023-12-04T10:36:53;1.40;99.90
16879;DHT22;8556;52.218;9.884;2023-12-04T10:39:23;1.40;88.70
16879;DHT22;8556;52.218;9.884;2023-12-04T10:42:01;1.40;77.60
16879;DHT22;8556;52.218;9.884;2023-12-04T10:44:28;1.50;99.90
16879;DHT22;8556;52.218;9.884;2023-12-04T10:46:56;1.40;51.80
16879;DHT22;8556;52.218;9.884;2023-12-04T10:49:26;1.40;61.70
16879;DHT22;8556;52.218;9.884;2023-12-04T10:51:56;1.30;59.20
16879;DHT22;8556;52.218;9.884;2023-12-04T10:54:25;1.30;15.20
16879;DHT22;8556;52.218;9.884;2023-12-04T10:56:52;1.40;24.80
16879;DHT22;8556;52.218;9.884;2023-12-04T10:59:25;1.40;15.20
16879;DHT22;8556;52.218;9.884;2023-12-04T11:01:54;1.40;34.00
16879;DHT22;8556;52.218;9.884;2023-12-04T11:04:23;1.50;22.40
16879;DHT22;8556;52.218;9.884;2023-12-04T11:06:53;1.50;18.00
16879;DHT22;8556;52.218;9.884;2023-12-04T11:09:22;1.60;65.80
16879;DHT22;8556;52.218;9.884;2023-12-04T11:11:56;1.50;1.00
16879;DHT22;8556;52.218;9.884;2023-12-04T11:14:28;1.60;11.10
16879;DHT22;8556;52.218;9.884;2023-12-04T11:17:01;1.70;59.40
16879;DHT22;8556;52.218;9.884;2023-12-04T11:19:35;1.70;66.80
16879;DHT22;8556;52.218;9.884;2023-12-04T11:22:04;1.50;32.70
16879;DHT22;8556;52.218;9.884;2023-12-04T11:24:35;1.60;10.60
16879;DHT22;8556;52.218;9.884;2023-12-04T11:27:03;1.60;10.80
16879;DHT22;8556;52.218;9.884;2023-12-04T11:29:30;1.70;11.70
16879;DHT22;8556;52.218;9.884;2023-12-04T11:31:57;1.70;1.00
16879;DHT22;8556;52.218;9.884;2023-12-04T11:34:24;1.70;12.40
16879;DHT22;8556;52.218;9.884;2023-12-04T11:36:52;1.70;18.90
16879;DHT22;8556;52.218;9.884;2023-12-04T11:39:19;1.50;1.00
16879;DHT22;8556;52.218;9.884;2023-12-04T11:41:47;1.50;1.00
16879;DHT22;8556;52.218;9.884;2023-12-04T11:44:14;1.60;1.00
16879;DHT22;8556;52.218;9.884;2023-12-04T11:46:55;1.60;1.00
16879;DHT22;8556;52.218;9.884;2023-12-04T11:49:30;1.70;1.00
16879;DHT22;8556;52.218;9.884;2023-12-04T11:51:58;1.70;1.00
16879;DHT22;8556;52.218;9.884;2023-12-04T11:54:27;1.80;1.00
16879;DHT22;8556;52.218;9.884;2023-12-04T11:57:00;1.70;1.00
16879;DHT22;8556;52.218;9.884;2023-12-04T11:59:27;1.80;1.00
16879;DHT22;8556;52.218;9.884;2023-12-04T12:01:54;1.80;1.00
16879;DHT22;8556;52.218;9.884;2023-12-04T12:04:23;1.90;1.00
16879;DHT22;8556;52.218;9.884;2023-12-04T12:06:50;2.00;1.00
16879;DHT22;8556;52.218;9.884;2023-12-04T12:09:17;2.00;1.00
16879;DHT22;8556;52.218;9.884;2023-12-04T12:11:44;2.10;1.00
16879;DHT22;8556;52.218;9.884;2023-12-04T12:14:12;2.20;5.40
16879;DHT22;8556;52.218;9.884;2023-12-04T12:16:40;2.20;42.60
16879;DHT22;8556;52.218;9.884;2023-12-04T12:19:07;2.10;1.00
16879;DHT22;8556;52.218;9.884;2023-12-04T12:21:34;2.00;1.00
16879;DHT22;8556;52.218;9.884;2023-12-04T12:24:00;2.10;1.00
16879;DHT22;8556;52.218;9.884;2023-12-04T12:26:28;2.10;1.00
16879;DHT22;8556;52.218;9.884;2023-12-04T12:28:56;2.10;1.00
16879;DHT22;8556;52.218;9.884;2023-12-04T12:31:24;2.10;1.00
16879;DHT22;8556;52.218;9.884;2023-12-04T12:33:51;2.00;1.00
16879;DHT22;8556;52.218;9.884;2023-12-04T12:36:18;2.00;1.00
16879;DHT22;8556;52.218;9.884;2023-12-04T12:38:45;2.00;1.00
16879;DHT22;8556;52.218;9.884;2023-12-04T12:41:15;2.00;1.00
16879;DHT22;8556;52.218;9.884;2023-12-04T12:43:42;1.90;1.00
16879;DHT22;8556;52.218;9.884;2023-12-04T12:46:10;2.00;1.00
16879;DHT22;8556;52.218;9.884;2023-12-04T12:48:38;2.00;1.00
16879;DHT22;8556;52.218;9.884;2023-12-04T12:51:06;2.00;1.00
16879;DHT22;8556;52.218;9.884;2023-12-04T12:53:35;2.10;1.00
16879;DHT22;8556;52.218;9.884;2023-12-04T12:56:02;2.10;1.00
16879;DHT22;8556;52.218;9.884;2023-12-04T12:58:29;2.20;1.00
16879;DHT22;8556;52.218;9.884;2023-12-04T13:00:56;2.10;1.00
16879;DHT22;8556;52.218;9.884;2023-12-04T13:03:22;2.10;1.00
16879;DHT22;8556;52.218;9.884;2023-12-04T13:05:51;2.00;1.00
16879;DHT22;8556;52.218;9.884;2023-12-04T13:08:18;2.00;1.00
16879;DHT22;8556;52.218;9.884;2023-12-04T13:10:44;2.40;1.00
16879;DHT22;8556;52.218;9.884;2023-12-04T13:13:11;1.90;1.00
16879;DHT22;8556;52.218;9.884;2023-12-04T13:15:38;2.00;1.00
16879;DHT22;8556;52.218;9.884;2023-12-04T13:18:06;2.00;1.00
16879;DHT22;8556;52.218;9.884;2023-12-04T13:20:33;2.00;1.00
16879;DHT22;8556;52.218;9.884;2023-12-04T13:23:02;1.90;1.00
16879;DHT22;8556;52.218;9.884;2023-12-04T13:25:29;2.00;1.00
16879;DHT22;8556;52.218;9.884;2023-12-04T13:27:56;2.00;1.00
16879;DHT22;8556;52.218;9.884;2023-12-04T13:30:22;2.00;1.00
16879;DHT22;8556;52.218;9.884;2023-12-04T13:32:49;2.10;1.00
16879;DHT22;8556;52.218;9.884;2023-12-04T13:35:17;2.00;1.00
16879;DHT22;8556;52.218;9.884;2023-12-04T13:37:44;2.00;1.00
16879;DHT22;8556;52.218;9.884;2023-12-04T13:40:13;2.10;1.00
16879;DHT22;8556;52.218;9.884;2023-12-04T13:42:41;2.00;1.00
16879;DHT22;8556;52.218;9.884;2023-12-04T13:45:26;2.10;1.00
16879;DHT22;8556;52.218;9.884;2023-12-04T13:47:53;2.10;1.00
16879;DHT22;8556;52.218;9.884;2023-12-04T13:50:20;2.00;1.00
16879;DHT22;8556;52.218;9.884;2023-12-04T13:52:47;2.00;1.00
16879;DHT22;8556;52.218;9.884;2023-12-04T13:55:23;2.00;1.00
16879;DHT22;8556;52.218;9.884;2023-12-04T13:58:02;2.00;1.00
16879;DHT22;8556;52.218;9.884;2023-12-04T14:00:36;2.00;1.00
16879;DHT22;8556;52.218;9.884;2023-12-04T14:03:03;2.00;1.00
16879;DHT22;8556;52.218;9.884;2023-12-04T14:05:30;2.00;1.00
16879;DHT22;8556;52.218;9.884;2023-12-04T14:07:57;2.00;1.00
16879;DHT22;8556;52.218;9.884;2023-12-04T14:10:26;2.00;1.00
16879;DHT22;8556;52.218;9.884;2023-12-04T14:12:54;2.00;1.00
16879;DHT22;8556;52.218;9.884;2023-12-04T14:15:20;2.00;1.00
16879;DHT22;8556;52.218;9.884;2023-12-04T14:17:47;2.00;1.00
16879;DHT22;8556;52.218;9.884;2023-12-04T14:20:14;2.40;1.00
16879;DHT22;8556;52.218;9.884;2023-12-04T14:22:45;1.90;1.00
16879;DHT22;8556;52.218;9.884;2023-12-04T14:25:12;1.90;1.00
16879;DHT22;8556;52.218;9.884;2023-12-04T14:27:41;1.90;1.00
16879;DHT22;8556;52.218;9.884;2023-12-04T14:30:12;1.90;1.00
16879;DHT22;8556;52.218;9.884;2023-12-04T14:32:39;2.00;1.00
16879;DHT22;8556;52.218;9.884;2023-12-04T14:35:07;1.90;1.00
16879;DHT22;8556;52.218;9.884;2023-12-04T14:37:34;2.00;1.00
16879;DHT22;8556;52.218;9.884;2023-12-04T14:40:02;2.00;1.00
16879;DHT22;8556;52.218;9.884;2023-12-04T14:42:30;1.90;1.00
16879;DHT22;8556;52.218;9.884;2023-12-04T14:44:58;1.90;1.00
16879;DHT22;8556;52.218;9.884;2023-12-04T14:47:25;1.90;1.00
16879;DHT22;8556;52.218;9.884;2023-12-04T14:49:52;1.90;1.00
16879;DHT22;8556;52.218;9.884;2023-12-04T14:52:20;1.80;1.00
16879;DHT22;8556;52.218;9.884;2023-12-04T14:54:48;1.90;1.00
16879;DHT22;8556;52.218;9.884;2023-12-04T14:57:46;1.90;1.00
16879;DHT22;8556;52.218;9.884;2023-12-04T15:00:42;1.80;1.00
16879;DHT22;8556;52.218;9.884;2023-12-04T15:03:40;1.80;1.00
16879;DHT22;8556;52.218;9.884;2023-12-04T15:06:24;1.80;1.00
16879;DHT22;8556;52.218;9.884;2023-12-04T15:09:23;1.80;1.00
16879;DHT22;8556;52.218;9.884;2023-12-04T15:12:21;1.70;1.00
16879;DHT22;8556;52.218;9.884;2023-12-04T15:14:59;1.70;1.00
16879;DHT22;8556;52.218;9.884;2023-12-04T15:17:40;1.70;1.00
16879;DHT22;8556;52.218;9.884;2023-12-04T15:20:17;1.70;1.00
16879;DHT22;8556;52.218;9.884;2023-12-04T15:22:57;1.70;1.00
16879;DHT22;8556;52.218;9.884;2023-12-04T15:25:24;1.70;1.00
16879;DHT22;8556;52.218;9.884;2023-12-04T15:27:50;1.70;1.00
16879;DHT22;8556;52.218;9.884;2023-12-04T15:30:17;1.70;1.00
16879;DHT22;8556;52.218;9.884;2023-12-04T15:32:44;1.80;1.00
16879;DHT22;8556;52.218;9.884;2023-12-04T15:35:11;1.80;1.00
16879;DHT22;8556;52.218;9.884;2023-12-04T15:37:40;1.90;1.00
16879;DHT22;8556;52.218;9.884;2023-12-04T15:40:08;1.90;1.00
16879;DHT22;8556;52.218;9.884;2023-12-04T15:42:34;2.00;1.00
16879;DHT22;8556;52.218;9.884;2023-12-04T15:45:02;2.00;1.00
16879;DHT22;8556;52.218;9.884;2023-12-04T15:47:28;2.00;1.00
16879;DHT22;8556;52.218;9.884;2023-12-04T15:49:57;2.00;1.00
16879;DHT22;8556;52.218;9.884;2023-12-04T15:52:51;2.00;1.00
16879;DHT22;8556;52.218;9.884;2023-12-04T15:55:16;2.00;1.00
16879;DHT22;8556;52.218;9.884;2023-12-04T15:57:46;2.00;1.00
16879;DHT22;8556;52.218;9.884;2023-12-04T16:00:13;1.90;1.00
16879;DHT22;8556;52.218;9.884;2023-12-04T16:02:41;1.80;1.00
16879;DHT22;8556;52.218;9.884;2023-12-04T16:05:09;1.80;1.00
16879;DHT22;8556;52.218;9.884;2023-12-04T16:07:36;1.70;1.00
16879;DHT22;8556;52.218;9.884;2023-12-04T16:10:04;1.70;1.00
16879;DHT22;8556;52.218;9.884;2023-12-04T16:12:32;1.70;1.00